sensor_id;sensor_type;location;lat;lon;timestamp;P1;durP1;ratioP1;P2;durP2;ratioP2
63280;SDS011;49406;51.044;3.766;2022-08-16T00:00:46;47.60;;;29.20;;
63280;SDS011;49406;51.044;3.766;2022-08-16T00:03:21;56.00;;;23.10;;
63280;SDS011;49406;51.044;3.766;2022-08-16T00:05:55;61.80;;;32.20;;
63280;SDS011;49406;51.044;3.766;2022-08-16T00:08:29;94.30;;;37.70;;
63280;SDS011;49406;51.044;3.766;2022-08-16T00:11:05;61.10;;;29.30;;
63280;SDS011;49406;51.044;3.766;2022-08-16T00:13:41;78.70;;;35.80;;
63280;SDS011;49406;51.044;3.766;2022-08-16T00:16:16;49.70;;;26.70;;
63280;SDS011;49406;51.044;3.766;2022-08-16T00:18:50;66.60;;;32.90;;
63280;SDS011;49406;51.044;3.766;2022-08-16T00:21:25;80.60;;;35.70;;
63280;SDS011;49406;51.044;3.766;2022-08-16T00:23:59;85.50;;;38.00;;
63280;SDS011;49406;51.044;3.766;2022-08-16T00:26:34;85.70;;;40.00;;
63280;SDS011;49406;51.044;3.766;2022-08-16T00:29:08;55.40;;;34.20;;
63280;SDS011;49406;51.044;3.766;2022-08-16T00:31:44;76.70;;;39.00;;
63280;SDS011;49406;51.044;3.766;2022-08-16T00:34:21;72.40;;;37.00;;
63280;SDS011;49406;51.044;3.766;2022-08-16T00:36:56;66.30;;;39.10;;
63280;SDS011;49406;51.044;3.766;2022-08-16T00:39:31;75.40;;;41.90;;
63280;SDS011;49406;51.044;3.766;2022-08-16T00:42:05;74.10;;;40.10;;
63280;SDS011;49406;51.044;3.766;2022-08-16T00:44:50;77.70;;;37.80;;
63280;SDS011;49406;51.044;3.766;2022-08-16T00:47:27;78.70;;;41.90;;
63280;SDS011;49406;51.044;3.766;2022-08-16T00:50:01;73.90;;;40.10;;
63280;SDS011;49406;51.044;3.766;2022-08-16T00:52:39;76.10;;;38.10;;
63280;SDS011;49406;51.044;3.766;2022-08-16T00:55:13;72.40;;;38.20;;
63280;SDS011;49406;51.044;3.766;2022-08-16T00:57:49;79.10;;;39.90;;
63280;SDS011;49406;51.044;3.766;2022-08-16T01:00:27;83.20;;;33.30;;
63280;SDS011;49406;51.044;3.766;2022-08-16T01:03:04;50.10;;;27.00;;
63280;SDS011;49406;51.044;3.766;2022-08-16T01:05:41;50.40;;;29.20;;
63280;SDS011;49406;51.044;3.766;2022-08-16T01:08:17;74.00;;;43.50;;
63280;SDS011;49406;51.044;3.766;2022-08-16T01:10:54;51.30;;;23.30;;
63280;SDS011;49406;51.044;3.766;2022-08-16T01:13:30;69.90;;;34.00;;
63280;SDS011;49406;51.044;3.766;2022-08-16T01:16:07;77.00;;;39.10;;
63280;SDS011;49406;51.044;3.766;2022-08-16T01:18:45;52.60;;;27.40;;
63280;SDS011;49406;51.044;3.766;2022-08-16T01:21:31;40.30;;;20.10;;
63280;SDS011;49406;51.044;3.766;2022-08-16T01:24:20;68.70;;;33.10;;
63280;SDS011;49406;51.044;3.766;2022-08-16T01:27:00;40.80;;;20.50;;
63280;SDS011;49406;51.044;3.766;2022-08-16T01:29:38;84.00;;;43.00;;
63280;SDS011;49406;51.044;3.766;2022-08-16T01:32:15;74.10;;;34.80;;
63280;SDS011;49406;51.044;3.766;2022-08-16T01:34:51;66.90;;;32.40;;
63280;SDS011;49406;51.044;3.766;2022-08-16T01:37:25;65.70;;;39.50;;
63280;SDS011;49406;51.044;3.766;2022-08-16T01:40:00;76.40;;;39.80;;
63280;SDS011;49406;51.044;3.766;2022-08-16T01:42:35;71.80;;;38.30;;
63280;SDS011;49406;51.044;3.766;2022-08-16T01:45:10;81.00;;;41.30;;
63280;SDS011;49406;51.044;3.766;2022-08-16T01:47:45;91.60;;;47.90;;
63280;SDS011;49406;51.044;3.766;2022-08-16T01:50:22;85.40;;;34.00;;
63280;SDS011;49406;51.044;3.766;2022-08-16T01:52:56;80.10;;;38.70;;
63280;SDS011;49406;51.044;3.766;2022-08-16T01:55:31;92.70;;;46.30;;
63280;SDS011;49406;51.044;3.766;2022-08-16T01:58:05;91.50;;;47.50;;
63280;SDS011;49406;51.044;3.766;2022-08-16T02:00:40;86.20;;;35.00;;
63280;SDS011;49406;51.044;3.766;2022-08-16T02:03:15;86.00;;;45.50;;
63280;SDS011;49406;51.044;3.766;2022-08-16T02:05:49;98.40;;;46.10;;
63280;SDS011;49406;51.044;3.766;2022-08-16T02:08:24;92.60;;;45.40;;
63280;SDS011;49406;51.044;3.766;2022-08-16T02:10:59;102.10;;;47.30;;
63280;SDS011;49406;51.044;3.766;2022-08-16T02:13:35;101.00;;;42.30;;
63280;SDS011;49406;51.044;3.766;2022-08-16T02:16:11;67.10;;;35.30;;
63280;SDS011;49406;51.044;3.766;2022-08-16T02:18:46;101.80;;;51.30;;
63280;SDS011;49406;51.044;3.766;2022-08-16T02:21:21;70.10;;;39.80;;
63280;SDS011;49406;51.044;3.766;2022-08-16T02:23:55;81.30;;;39.30;;
63280;SDS011;49406;51.044;3.766;2022-08-16T02:26:30;75.80;;;32.50;;
63280;SDS011;49406;51.044;3.766;2022-08-16T02:29:04;83.40;;;46.60;;
63280;SDS011;49406;51.044;3.766;2022-08-16T02:31:39;92.00;;;46.40;;
63280;SDS011;49406;51.044;3.766;2022-08-16T02:34:13;87.90;;;38.40;;
63280;SDS011;49406;51.044;3.766;2022-08-16T02:36:49;40.90;;;19.50;;
63280;SDS011;49406;51.044;3.766;2022-08-16T02:39:24;71.40;;;32.80;;
63280;SDS011;49406;51.044;3.766;2022-08-16T02:41:59;51.10;;;21.80;;
63280;SDS011;49406;51.044;3.766;2022-08-16T02:44:33;60.40;;;26.90;;
63280;SDS011;49406;51.044;3.766;2022-08-16T02:47:07;54.60;;;28.80;;
63280;SDS011;49406;51.044;3.766;2022-08-16T02:49:42;55.30;;;29.20;;
63280;SDS011;49406;51.044;3.766;2022-08-16T02:52:16;51.20;;;25.10;;
63280;SDS011;49406;51.044;3.766;2022-08-16T02:54:51;64.30;;;32.60;;
63280;SDS011;49406;51.044;3.766;2022-08-16T02:57:26;85.90;;;37.10;;
63280;SDS011;49406;51.044;3.766;2022-08-16T03:00:02;46.00;;;21.60;;
63280;SDS011;49406;51.044;3.766;2022-08-16T03:02:41;41.30;;;23.40;;
63280;SDS011;49406;51.044;3.766;2022-08-16T03:05:16;91.20;;;42.80;;
63280;SDS011;49406;51.044;3.766;2022-08-16T03:07:50;52.70;;;27.10;;
63280;SDS011;49406;51.044;3.766;2022-08-16T03:10:25;50.00;;;26.50;;
63280;SDS011;49406;51.044;3.766;2022-08-16T03:13:00;68.10;;;30.10;;
63280;SDS011;49406;51.044;3.766;2022-08-16T03:15:35;72.30;;;32.40;;
63280;SDS011;49406;51.044;3.766;2022-08-16T03:18:09;56.80;;;33.20;;
63280;SDS011;49406;51.044;3.766;2022-08-16T03:20:44;54.00;;;21.70;;
63280;SDS011;49406;51.044;3.766;2022-08-16T03:23:18;69.70;;;35.50;;
63280;SDS011;49406;51.044;3.766;2022-08-16T03:25:53;79.90;;;36.30;;
63280;SDS011;49406;51.044;3.766;2022-08-16T03:28:27;85.30;;;40.80;;
63280;SDS011;49406;51.044;3.766;2022-08-16T03:31:02;51.40;;;31.60;;
63280;SDS011;49406;51.044;3.766;2022-08-16T03:33:37;68.00;;;25.80;;
63280;SDS011;49406;51.044;3.766;2022-08-16T03:36:11;81.00;;;34.80;;
63280;SDS011;49406;51.044;3.766;2022-08-16T03:38:46;77.00;;;33.20;;
63280;SDS011;49406;51.044;3.766;2022-08-16T03:41:20;80.60;;;37.20;;
63280;SDS011;49406;51.044;3.766;2022-08-16T03:43:56;77.00;;;40.40;;
63280;SDS011;49406;51.044;3.766;2022-08-16T03:46:31;89.70;;;35.60;;
63280;SDS011;49406;51.044;3.766;2022-08-16T03:49:05;94.80;;;39.00;;
63280;SDS011;49406;51.044;3.766;2022-08-16T03:51:42;92.10;;;37.10;;
63280;SDS011;49406;51.044;3.766;2022-08-16T03:54:16;74.40;;;37.60;;
63280;SDS011;49406;51.044;3.766;2022-08-16T03:56:51;48.50;;;22.50;;
63280;SDS011;49406;51.044;3.766;2022-08-16T03:59:25;89.40;;;39.70;;
63280;SDS011;49406;51.044;3.766;2022-08-16T04:02:00;56.30;;;25.70;;
63280;SDS011;49406;51.044;3.766;2022-08-16T04:04:35;74.20;;;40.50;;
63280;SDS011;49406;51.044;3.766;2022-08-16T04:07:10;36.60;;;21.30;;
63280;SDS011;49406;51.044;3.766;2022-08-16T04:09:44;76.40;;;42.10;;
63280;SDS011;49406;51.044;3.766;2022-08-16T04:12:19;103.40;;;45.20;;
63280;SDS011;49406;51.044;3.766;2022-08-16T04:14:53;114.00;;;48.60;;
63280;SDS011;49406;51.044;3.766;2022-08-16T04:17:27;104.50;;;46.80;;
63280;SDS011;49406;51.044;3.766;2022-08-16T04:20:03;78.80;;;44.30;;
63280;SDS011;49406;51.044;3.766;2022-08-16T04:22:40;81.10;;;41.10;;
63280;SDS011;49406;51.044;3.766;2022-08-16T04:25:15;99.40;;;55.20;;
63280;SDS011;49406;51.044;3.766;2022-08-16T04:27:49;70.40;;;41.20;;
63280;SDS011;49406;51.044;3.766;2022-08-16T04:30:24;60.90;;;31.50;;
63280;SDS011;49406;51.044;3.766;2022-08-16T04:32:59;77.30;;;46.70;;
63280;SDS011;49406;51.044;3.766;2022-08-16T04:35:34;75.80;;;38.00;;
63280;SDS011;49406;51.044;3.766;2022-08-16T04:38:08;45.50;;;26.50;;
63280;SDS011;49406;51.044;3.766;2022-08-16T04:40:42;80.50;;;40.10;;
63280;SDS011;49406;51.044;3.766;2022-08-16T04:43:18;91.80;;;46.80;;
63280;SDS011;49406;51.044;3.766;2022-08-16T04:45:52;78.90;;;41.10;;
63280;SDS011;49406;51.044;3.766;2022-08-16T04:48:26;90.10;;;51.80;;
63280;SDS011;49406;51.044;3.766;2022-08-16T04:51:01;49.50;;;24.90;;
63280;SDS011;49406;51.044;3.766;2022-08-16T04:53:35;73.50;;;42.10;;
63280;SDS011;49406;51.044;3.766;2022-08-16T04:56:10;75.00;;;42.40;;
63280;SDS011;49406;51.044;3.766;2022-08-16T04:58:44;58.40;;;37.90;;
63280;SDS011;49406;51.044;3.766;2022-08-16T05:01:19;41.70;;;28.40;;
63280;SDS011;49406;51.044;3.766;2022-08-16T05:03:53;61.40;;;40.10;;
63280;SDS011;49406;51.044;3.766;2022-08-16T05:06:28;78.30;;;46.50;;
63280;SDS011;49406;51.044;3.766;2022-08-16T05:09:03;74.80;;;40.60;;
63280;SDS011;49406;51.044;3.766;2022-08-16T05:11:37;63.90;;;29.20;;
63280;SDS011;49406;51.044;3.766;2022-08-16T05:14:11;68.40;;;35.10;;
63280;SDS011;49406;51.044;3.766;2022-08-16T05:16:46;107.50;;;45.20;;
63280;SDS011;49406;51.044;3.766;2022-08-16T05:19:20;103.60;;;59.60;;
63280;SDS011;49406;51.044;3.766;2022-08-16T05:21:55;59.80;;;33.80;;
63280;SDS011;49406;51.044;3.766;2022-08-16T05:24:30;50.70;;;24.20;;
63280;SDS011;49406;51.044;3.766;2022-08-16T05:27:04;54.50;;;25.80;;
63280;SDS011;49406;51.044;3.766;2022-08-16T05:29:39;78.60;;;36.50;;
63280;SDS011;49406;51.044;3.766;2022-08-16T05:32:13;87.60;;;46.10;;
63280;SDS011;49406;51.044;3.766;2022-08-16T05:34:47;58.20;;;32.50;;
63280;SDS011;49406;51.044;3.766;2022-08-16T05:37:22;57.70;;;27.80;;
63280;SDS011;49406;51.044;3.766;2022-08-16T05:39:56;43.40;;;18.00;;
63280;SDS011;49406;51.044;3.766;2022-08-16T05:42:31;53.50;;;29.70;;
63280;SDS011;49406;51.044;3.766;2022-08-16T05:45:06;86.70;;;47.20;;
63280;SDS011;49406;51.044;3.766;2022-08-16T05:47:41;47.90;;;24.50;;
63280;SDS011;49406;51.044;3.766;2022-08-16T05:50:15;43.40;;;24.60;;
63280;SDS011;49406;51.044;3.766;2022-08-16T05:52:49;64.80;;;34.10;;
63280;SDS011;49406;51.044;3.766;2022-08-16T05:55:24;45.90;;;29.10;;
63280;SDS011;49406;51.044;3.766;2022-08-16T05:57:59;69.80;;;33.60;;
63280;SDS011;49406;51.044;3.766;2022-08-16T06:00:33;62.00;;;33.50;;
63280;SDS011;49406;51.044;3.766;2022-08-16T06:03:08;48.30;;;22.70;;
63280;SDS011;49406;51.044;3.766;2022-08-16T06:05:42;32.90;;;20.40;;
63280;SDS011;49406;51.044;3.766;2022-08-16T06:08:16;53.70;;;31.60;;
63280;SDS011;49406;51.044;3.766;2022-08-16T06:10:51;58.20;;;36.40;;
63280;SDS011;49406;51.044;3.766;2022-08-16T06:13:25;40.00;;;25.70;;
63280;SDS011;49406;51.044;3.766;2022-08-16T06:16:00;45.00;;;29.60;;
63280;SDS011;49406;51.044;3.766;2022-08-16T06:18:34;51.30;;;27.20;;
63280;SDS011;49406;51.044;3.766;2022-08-16T06:21:09;56.60;;;37.60;;
63280;SDS011;49406;51.044;3.766;2022-08-16T06:23:43;62.00;;;36.50;;
63280;SDS011;49406;51.044;3.766;2022-08-16T06:26:18;25.30;;;16.80;;
63280;SDS011;49406;51.044;3.766;2022-08-16T06:28:52;36.40;;;20.10;;
63280;SDS011;49406;51.044;3.766;2022-08-16T06:31:27;33.00;;;19.00;;
63280;SDS011;49406;51.044;3.766;2022-08-16T06:34:01;23.50;;;15.10;;
63280;SDS011;49406;51.044;3.766;2022-08-16T06:36:36;37.80;;;24.50;;
63280;SDS011;49406;51.044;3.766;2022-08-16T06:39:10;49.70;;;29.30;;
63280;SDS011;49406;51.044;3.766;2022-08-16T06:41:44;47.80;;;28.00;;
63280;SDS011;49406;51.044;3.766;2022-08-16T06:44:19;38.10;;;24.10;;
63280;SDS011;49406;51.044;3.766;2022-08-16T06:46:53;29.20;;;22.50;;
63280;SDS011;49406;51.044;3.766;2022-08-16T06:49:28;37.40;;;16.30;;
63280;SDS011;49406;51.044;3.766;2022-08-16T06:52:02;36.40;;;25.40;;
63280;SDS011;49406;51.044;3.766;2022-08-16T06:54:37;27.10;;;16.50;;
63280;SDS011;49406;51.044;3.766;2022-08-16T06:57:12;22.30;;;14.60;;
63280;SDS011;49406;51.044;3.766;2022-08-16T06:59:47;24.40;;;16.40;;
63280;SDS011;49406;51.044;3.766;2022-08-16T07:02:22;17.60;;;13.20;;
63280;SDS011;49406;51.044;3.766;2022-08-16T07:04:56;21.70;;;15.10;;
63280;SDS011;49406;51.044;3.766;2022-08-16T07:07:30;38.60;;;27.30;;
63280;SDS011;49406;51.044;3.766;2022-08-16T07:10:06;31.10;;;19.10;;
63280;SDS011;49406;51.044;3.766;2022-08-16T07:12:41;44.30;;;30.20;;
63280;SDS011;49406;51.044;3.766;2022-08-16T07:15:21;27.90;;;15.80;;
63280;SDS011;49406;51.044;3.766;2022-08-16T07:17:55;32.70;;;26.60;;
63280;SDS011;49406;51.044;3.766;2022-08-16T07:20:31;38.70;;;25.00;;
63280;SDS011;49406;51.044;3.766;2022-08-16T07:23:05;22.40;;;17.40;;
63280;SDS011;49406;51.044;3.766;2022-08-16T07:25:40;39.20;;;23.50;;
63280;SDS011;49406;51.044;3.766;2022-08-16T07:28:15;54.50;;;33.30;;
63280;SDS011;49406;51.044;3.766;2022-08-16T07:30:50;41.60;;;25.30;;
63280;SDS011;49406;51.044;3.766;2022-08-16T07:33:25;21.20;;;16.30;;
63280;SDS011;49406;51.044;3.766;2022-08-16T07:35:59;28.20;;;16.50;;
63280;SDS011;49406;51.044;3.766;2022-08-16T07:38:34;41.20;;;30.10;;
63280;SDS011;49406;51.044;3.766;2022-08-16T07:41:08;20.20;;;15.70;;
63280;SDS011;49406;51.044;3.766;2022-08-16T07:43:43;30.90;;;23.90;;
63280;SDS011;49406;51.044;3.766;2022-08-16T07:46:18;35.70;;;23.60;;
63280;SDS011;49406;51.044;3.766;2022-08-16T07:48:52;44.10;;;27.20;;
63280;SDS011;49406;51.044;3.766;2022-08-16T07:51:26;37.10;;;26.50;;
63280;SDS011;49406;51.044;3.766;2022-08-16T07:54:04;24.40;;;17.10;;
63280;SDS011;49406;51.044;3.766;2022-08-16T07:56:40;16.00;;;12.10;;
63280;SDS011;49406;51.044;3.766;2022-08-16T07:59:14;20.40;;;15.50;;
63280;SDS011;49406;51.044;3.766;2022-08-16T08:01:48;25.90;;;19.50;;
63280;SDS011;49406;51.044;3.766;2022-08-16T08:04:24;34.10;;;23.00;;
63280;SDS011;49406;51.044;3.766;2022-08-16T08:06:58;24.00;;;18.40;;
63280;SDS011;49406;51.044;3.766;2022-08-16T08:09:33;24.90;;;21.70;;
63280;SDS011;49406;51.044;3.766;2022-08-16T08:12:07;33.70;;;21.20;;
63280;SDS011;49406;51.044;3.766;2022-08-16T08:14:42;19.40;;;11.70;;
63280;SDS011;49406;51.044;3.766;2022-08-16T08:17:16;16.10;;;13.70;;
63280;SDS011;49406;51.044;3.766;2022-08-16T08:19:51;23.30;;;13.10;;
63280;SDS011;49406;51.044;3.766;2022-08-16T08:22:25;27.50;;;16.00;;
63280;SDS011;49406;51.044;3.766;2022-08-16T08:25:00;28.70;;;16.10;;
63280;SDS011;49406;51.044;3.766;2022-08-16T08:27:34;37.90;;;21.90;;
63280;SDS011;49406;51.044;3.766;2022-08-16T08:30:09;28.00;;;17.30;;
63280;SDS011;49406;51.044;3.766;2022-08-16T08:32:45;21.40;;;9.60;;
63280;SDS011;49406;51.044;3.766;2022-08-16T08:35:20;13.00;;;10.70;;
63280;SDS011;49406;51.044;3.766;2022-08-16T08:37:54;17.50;;;12.40;;
63280;SDS011;49406;51.044;3.766;2022-08-16T08:40:29;31.90;;;21.30;;
63280;SDS011;49406;51.044;3.766;2022-08-16T08:43:03;16.20;;;11.60;;
63280;SDS011;49406;51.044;3.766;2022-08-16T08:45:42;31.10;;;17.40;;
63280;SDS011;49406;51.044;3.766;2022-08-16T08:48:17;26.10;;;21.00;;
63280;SDS011;49406;51.044;3.766;2022-08-16T08:50:51;15.50;;;10.10;;
63280;SDS011;49406;51.044;3.766;2022-08-16T08:53:26;19.30;;;13.10;;
63280;SDS011;49406;51.044;3.766;2022-08-16T08:56:00;31.00;;;20.20;;
63280;SDS011;49406;51.044;3.766;2022-08-16T08:58:37;39.90;;;20.80;;
63280;SDS011;49406;51.044;3.766;2022-08-16T09:01:12;15.60;;;12.40;;
63280;SDS011;49406;51.044;3.766;2022-08-16T09:03:48;21.40;;;12.30;;
63280;SDS011;49406;51.044;3.766;2022-08-16T09:06:22;27.30;;;19.90;;
63280;SDS011;49406;51.044;3.766;2022-08-16T09:08:57;29.00;;;19.20;;
63280;SDS011;49406;51.044;3.766;2022-08-16T09:11:32;33.60;;;18.50;;
63280;SDS011;49406;51.044;3.766;2022-08-16T09:14:07;33.10;;;23.10;;
63280;SDS011;49406;51.044;3.766;2022-08-16T09:16:42;29.50;;;22.00;;
63280;SDS011;49406;51.044;3.766;2022-08-16T09:19:16;22.50;;;20.20;;
63280;SDS011;49406;51.044;3.766;2022-08-16T09:21:52;17.30;;;12.00;;
63280;SDS011;49406;51.044;3.766;2022-08-16T09:24:26;16.20;;;13.00;;
63280;SDS011;49406;51.044;3.766;2022-08-16T09:27:01;14.20;;;10.30;;
63280;SDS011;49406;51.044;3.766;2022-08-16T09:29:36;21.20;;;15.50;;
63280;SDS011;49406;51.044;3.766;2022-08-16T09:32:10;29.00;;;17.10;;
63280;SDS011;49406;51.044;3.766;2022-08-16T09:34:45;24.50;;;17.00;;
63280;SDS011;49406;51.044;3.766;2022-08-16T09:37:19;18.80;;;13.70;;
63280;SDS011;49406;51.044;3.766;2022-08-16T09:39:53;16.60;;;14.90;;
63280;SDS011;49406;51.044;3.766;2022-08-16T09:42:28;19.00;;;17.10;;
63280;SDS011;49406;51.044;3.766;2022-08-16T09:45:03;13.20;;;11.90;;
63280;SDS011;49406;51.044;3.766;2022-08-16T09:47:38;9.60;;;8.30;;
63280;SDS011;49406;51.044;3.766;2022-08-16T09:50:13;11.70;;;10.50;;
63280;SDS011;49406;51.044;3.766;2022-08-16T09:52:47;21.30;;;16.60;;
63280;SDS011;49406;51.044;3.766;2022-08-16T09:55:22;9.40;;;8.60;;
63280;SDS011;49406;51.044;3.766;2022-08-16T09:57:56;19.30;;;15.90;;
63280;SDS011;49406;51.044;3.766;2022-08-16T10:00:31;13.80;;;12.50;;
63280;SDS011;49406;51.044;3.766;2022-08-16T10:03:06;17.40;;;15.80;;
63280;SDS011;49406;51.044;3.766;2022-08-16T10:05:41;10.00;;;8.70;;
63280;SDS011;49406;51.044;3.766;2022-08-16T10:08:15;12.60;;;7.90;;
63280;SDS011;49406;51.044;3.766;2022-08-16T10:10:50;9.40;;;6.90;;
63280;SDS011;49406;51.044;3.766;2022-08-16T10:13:42;5.60;;;5.20;;
63280;SDS011;49406;51.044;3.766;2022-08-16T10:16:16;14.20;;;7.10;;
63280;SDS011;49406;51.044;3.766;2022-08-16T10:18:51;6.20;;;5.10;;
63280;SDS011;49406;51.044;3.766;2022-08-16T10:21:25;10.70;;;8.10;;
63280;SDS011;49406;51.044;3.766;2022-08-16T10:24:00;6.50;;;4.80;;
63280;SDS011;49406;51.044;3.766;2022-08-16T10:26:35;7.80;;;7.10;;
63280;SDS011;49406;51.044;3.766;2022-08-16T10:29:10;12.30;;;9.00;;
63280;SDS011;49406;51.044;3.766;2022-08-16T10:31:44;8.90;;;8.20;;
63280;SDS011;49406;51.044;3.766;2022-08-16T10:34:19;6.60;;;5.70;;
63280;SDS011;49406;51.044;3.766;2022-08-16T10:36:53;18.00;;;12.20;;
63280;SDS011;49406;51.044;3.766;2022-08-16T10:39:28;7.60;;;6.40;;
63280;SDS011;49406;51.044;3.766;2022-08-16T10:42:03;10.30;;;8.60;;
63280;SDS011;49406;51.044;3.766;2022-08-16T10:44:37;10.20;;;9.40;;
63280;SDS011;49406;51.044;3.766;2022-08-16T10:47:12;7.10;;;6.50;;
63280;SDS011;49406;51.044;3.766;2022-08-16T10:49:46;11.60;;;7.80;;
63280;SDS011;49406;51.044;3.766;2022-08-16T10:52:21;6.60;;;5.60;;
63280;SDS011;49406;51.044;3.766;2022-08-16T10:54:55;6.60;;;6.00;;
63280;SDS011;49406;51.044;3.766;2022-08-16T10:57:30;7.60;;;5.70;;
63280;SDS011;49406;51.044;3.766;2022-08-16T11:00:06;12.20;;;5.80;;
63280;SDS011;49406;51.044;3.766;2022-08-16T11:02:44;7.60;;;5.40;;
63280;SDS011;49406;51.044;3.766;2022-08-16T11:05:19;5.60;;;4.20;;
63280;SDS011;49406;51.044;3.766;2022-08-16T11:07:54;7.00;;;5.20;;
63280;SDS011;49406;51.044;3.766;2022-08-16T11:10:29;4.40;;;4.00;;
63280;SDS011;49406;51.044;3.766;2022-08-16T11:13:06;10.60;;;7.50;;
63280;SDS011;49406;51.044;3.766;2022-08-16T11:15:41;6.50;;;5.90;;
63280;SDS011;49406;51.044;3.766;2022-08-16T11:18:15;5.00;;;4.00;;
63280;SDS011;49406;51.044;3.766;2022-08-16T11:20:51;5.90;;;5.40;;
63280;SDS011;49406;51.044;3.766;2022-08-16T11:23:27;7.80;;;4.60;;
63280;SDS011;49406;51.044;3.766;2022-08-16T11:26:01;5.80;;;5.00;;
63280;SDS011;49406;51.044;3.766;2022-08-16T11:28:36;6.00;;;5.60;;
63280;SDS011;49406;51.044;3.766;2022-08-16T11:31:10;3.90;;;2.90;;
63280;SDS011;49406;51.044;3.766;2022-08-16T11:33:45;3.30;;;3.10;;
63280;SDS011;49406;51.044;3.766;2022-08-16T11:36:19;3.60;;;3.20;;
63280;SDS011;49406;51.044;3.766;2022-08-16T11:38:54;5.70;;;4.60;;
63280;SDS011;49406;51.044;3.766;2022-08-16T11:41:30;2.60;;;2.40;;
63280;SDS011;49406;51.044;3.766;2022-08-16T11:46:41;5.80;;;2.60;;
63280;SDS011;49406;51.044;3.766;2022-08-16T11:49:16;4.80;;;2.70;;
63280;SDS011;49406;51.044;3.766;2022-08-16T11:51:51;4.30;;;2.80;;
63280;SDS011;49406;51.044;3.766;2022-08-16T11:54:25;2.10;;;1.90;;
63280;SDS011;49406;51.044;3.766;2022-08-16T11:57:00;2.90;;;2.00;;
63280;SDS011;49406;51.044;3.766;2022-08-16T11:59:34;2.40;;;2.20;;
63280;SDS011;49406;51.044;3.766;2022-08-16T12:02:10;2.80;;;2.40;;
63280;SDS011;49406;51.044;3.766;2022-08-16T12:04:44;2.90;;;2.60;;
63280;SDS011;49406;51.044;3.766;2022-08-16T12:07:19;2.20;;;1.80;;
63280;SDS011;49406;51.044;3.766;2022-08-16T12:09:54;2.40;;;2.10;;
63280;SDS011;49406;51.044;3.766;2022-08-16T12:12:28;3.10;;;2.40;;
63280;SDS011;49406;51.044;3.766;2022-08-16T12:15:03;5.50;;;2.50;;
63280;SDS011;49406;51.044;3.766;2022-08-16T12:17:39;2.90;;;2.30;;
63280;SDS011;49406;51.044;3.766;2022-08-16T12:20:14;2.60;;;2.20;;
63280;SDS011;49406;51.044;3.766;2022-08-16T12:22:51;3.50;;;2.10;;
63280;SDS011;49406;51.044;3.766;2022-08-16T12:25:27;2.50;;;2.00;;
63280;SDS011;49406;51.044;3.766;2022-08-16T12:28:03;2.70;;;2.50;;
63280;SDS011;49406;51.044;3.766;2022-08-16T12:30:40;4.60;;;2.30;;
63280;SDS011;49406;51.044;3.766;2022-08-16T12:33:16;2.70;;;1.90;;
63280;SDS011;49406;51.044;3.766;2022-08-16T12:35:50;2.40;;;1.80;;
63280;SDS011;49406;51.044;3.766;2022-08-16T12:38:25;2.10;;;1.70;;
63280;SDS011;49406;51.044;3.766;2022-08-16T12:41:00;3.80;;;2.60;;
63280;SDS011;49406;51.044;3.766;2022-08-16T12:43:35;2.20;;;1.60;;
63280;SDS011;49406;51.044;3.766;2022-08-16T12:46:12;5.10;;;3.90;;
63280;SDS011;49406;51.044;3.766;2022-08-16T12:48:46;4.90;;;2.90;;
63280;SDS011;49406;51.044;3.766;2022-08-16T12:51:30;3.60;;;3.20;;
63280;SDS011;49406;51.044;3.766;2022-08-16T12:54:07;2.30;;;2.10;;
63280;SDS011;49406;51.044;3.766;2022-08-16T12:56:42;2.30;;;2.00;;
63280;SDS011;49406;51.044;3.766;2022-08-16T12:59:17;2.70;;;2.20;;
63280;SDS011;49406;51.044;3.766;2022-08-16T13:01:52;5.90;;;3.00;;
63280;SDS011;49406;51.044;3.766;2022-08-16T13:04:30;2.70;;;1.80;;
63280;SDS011;49406;51.044;3.766;2022-08-16T13:07:06;5.20;;;3.40;;
63280;SDS011;49406;51.044;3.766;2022-08-16T13:09:40;8.30;;;2.80;;
63280;SDS011;49406;51.044;3.766;2022-08-16T13:12:23;3.40;;;2.40;;
63280;SDS011;49406;51.044;3.766;2022-08-16T13:14:58;7.60;;;3.90;;
63280;SDS011;49406;51.044;3.766;2022-08-16T13:17:33;2.80;;;2.60;;
63280;SDS011;49406;51.044;3.766;2022-08-16T13:20:09;2.30;;;2.20;;
63280;SDS011;49406;51.044;3.766;2022-08-16T13:22:46;2.30;;;2.10;;
63280;SDS011;49406;51.044;3.766;2022-08-16T13:25:24;2.70;;;2.50;;
63280;SDS011;49406;51.044;3.766;2022-08-16T13:27:59;2.20;;;1.90;;
63280;SDS011;49406;51.044;3.766;2022-08-16T13:30:34;3.10;;;2.60;;
63280;SDS011;49406;51.044;3.766;2022-08-16T13:33:12;3.00;;;2.50;;
63280;SDS011;49406;51.044;3.766;2022-08-16T13:35:49;6.70;;;2.20;;
63280;SDS011;49406;51.044;3.766;2022-08-16T13:38:25;3.90;;;2.20;;
63280;SDS011;49406;51.044;3.766;2022-08-16T13:41:00;3.60;;;3.30;;
63280;SDS011;49406;51.044;3.766;2022-08-16T13:43:35;2.00;;;1.80;;
63280;SDS011;49406;51.044;3.766;2022-08-16T13:46:11;2.70;;;2.40;;
63280;SDS011;49406;51.044;3.766;2022-08-16T13:48:45;2.40;;;1.80;;
63280;SDS011;49406;51.044;3.766;2022-08-16T13:51:19;3.70;;;3.00;;
63280;SDS011;49406;51.044;3.766;2022-08-16T13:53:56;5.10;;;4.00;;
63280;SDS011;49406;51.044;3.766;2022-08-16T13:59:08;3.70;;;2.90;;
63280;SDS011;49406;51.044;3.766;2022-08-16T14:01:44;3.60;;;2.90;;
63280;SDS011;49406;51.044;3.766;2022-08-16T14:04:19;3.30;;;2.20;;
63280;SDS011;49406;51.044;3.766;2022-08-16T14:06:54;5.30;;;3.20;;
63280;SDS011;49406;51.044;3.766;2022-08-16T14:09:29;4.60;;;2.30;;
63280;SDS011;49406;51.044;3.766;2022-08-16T14:12:17;3.80;;;2.60;;
63280;SDS011;49406;51.044;3.766;2022-08-16T14:14:53;3.70;;;2.70;;
63280;SDS011;49406;51.044;3.766;2022-08-16T14:17:29;3.20;;;2.70;;
63280;SDS011;49406;51.044;3.766;2022-08-16T14:20:04;10.80;;;3.50;;
63280;SDS011;49406;51.044;3.766;2022-08-16T14:22:41;3.30;;;2.90;;
63280;SDS011;49406;51.044;3.766;2022-08-16T14:25:17;3.10;;;2.70;;
63280;SDS011;49406;51.044;3.766;2022-08-16T14:27:51;3.30;;;2.30;;
63280;SDS011;49406;51.044;3.766;2022-08-16T14:30:26;3.30;;;3.00;;
63280;SDS011;49406;51.044;3.766;2022-08-16T14:33:00;2.80;;;2.60;;
63280;SDS011;49406;51.044;3.766;2022-08-16T14:35:35;7.90;;;3.70;;
63280;SDS011;49406;51.044;3.766;2022-08-16T14:38:09;2.30;;;1.90;;
63280;SDS011;49406;51.044;3.766;2022-08-16T14:40:44;6.10;;;2.70;;
63280;SDS011;49406;51.044;3.766;2022-08-16T14:43:19;2.90;;;2.70;;
63280;SDS011;49406;51.044;3.766;2022-08-16T14:45:53;3.10;;;2.30;;
63280;SDS011;49406;51.044;3.766;2022-08-16T14:48:28;2.80;;;2.20;;
63280;SDS011;49406;51.044;3.766;2022-08-16T14:51:02;3.10;;;2.80;;
63280;SDS011;49406;51.044;3.766;2022-08-16T14:53:37;4.40;;;3.90;;
63280;SDS011;49406;51.044;3.766;2022-08-16T14:56:12;2.30;;;1.70;;
63280;SDS011;49406;51.044;3.766;2022-08-16T14:58:46;4.10;;;3.20;;
63280;SDS011;49406;51.044;3.766;2022-08-16T15:01:21;2.50;;;2.20;;
63280;SDS011;49406;51.044;3.766;2022-08-16T15:03:55;3.40;;;2.40;;
63280;SDS011;49406;51.044;3.766;2022-08-16T15:06:30;2.60;;;2.40;;
63280;SDS011;49406;51.044;3.766;2022-08-16T15:09:05;3.20;;;2.90;;
63280;SDS011;49406;51.044;3.766;2022-08-16T15:11:39;4.20;;;1.90;;
63280;SDS011;49406;51.044;3.766;2022-08-16T15:14:14;3.60;;;3.20;;
63280;SDS011;49406;51.044;3.766;2022-08-16T15:16:49;3.40;;;3.10;;
63280;SDS011;49406;51.044;3.766;2022-08-16T15:19:23;2.70;;;2.40;;
63280;SDS011;49406;51.044;3.766;2022-08-16T15:21:58;2.80;;;2.40;;